sensor_id;sensor_type;location;lat;lon;timestamp;P1;durP1;ratioP1;P2;durP2;ratioP2
29934;SDS011;19905;53.370;-6.314;2022-12-07T00:02:18;17.90;;;6.13;;
29934;SDS011;19905;53.370;-6.314;2022-12-07T00:04:48;17.63;;;6.75;;
29934;SDS011;19905;53.370;-6.314;2022-12-07T00:07:16;17.90;;;6.55;;
29934;SDS011;19905;53.370;-6.314;2022-12-07T00:09:54;18.70;;;6.28;;
29934;SDS011;19905;53.370;-6.314;2022-12-07T00:12:23;23.88;;;6.65;;
29934;SDS011;19905;53.370;-6.314;2022-12-07T00:14:52;21.60;;;6.45;;
29934;SDS011;19905;53.370;-6.314;2022-12-07T00:17:22;15.55;;;5.72;;
29934;SDS011;19905;53.370;-6.314;2022-12-07T00:19:50;16.13;;;6.18;;
29934;SDS011;19905;53.370;-6.314;2022-12-07T00:22:19;17.63;;;6.15;;
29934;SDS011;19905;53.370;-6.314;2022-12-07T00:24:48;16.60;;;6.22;;
29934;SDS011;19905;53.370;-6.314;2022-12-07T00:27:18;18.45;;;6.25;;
29934;SDS011;19905;53.370;-6.314;2022-12-07T00:29:46;14.65;;;5.53;;
29934;SDS011;19905;53.370;-6.314;2022-12-07T00:32:15;15.95;;;5.00;;
29934;SDS011;19905;53.370;-6.314;2022-12-07T00:34:45;12.27;;;5.10;;
29934;SDS011;19905;53.370;-6.314;2022-12-07T00:37:13;13.63;;;5.50;;
29934;SDS011;19905;53.370;-6.314;2022-12-07T00:39:42;16.98;;;5.65;;
29934;SDS011;19905;53.370;-6.314;2022-12-07T00:42:10;15.07;;;5.70;;
29934;SDS011;19905;53.370;-6.314;2022-12-07T00:44:40;13.88;;;5.57;;
29934;SDS011;19905;53.370;-6.314;2022-12-07T00:47:09;16.73;;;5.60;;
29934;SDS011;19905;53.370;-6.314;2022-12-07T00:49:38;16.95;;;6.22;;
29934;SDS011;19905;53.370;-6.314;2022-12-07T00:52:07;11.65;;;5.78;;
29934;SDS011;19905;53.370;-6.314;2022-12-07T00:54:35;20.92;;;6.78;;
29934;SDS011;19905;53.370;-6.314;2022-12-07T00:57:04;19.60;;;6.88;;
29934;SDS011;19905;53.370;-6.314;2022-12-07T00:59:33;19.30;;;6.03;;
29934;SDS011;19905;53.370;-6.314;2022-12-07T01:02:03;20.13;;;6.15;;
29934;SDS011;19905;53.370;-6.314;2022-12-07T01:04:33;17.10;;;6.55;;
29934;SDS011;19905;53.370;-6.314;2022-12-07T01:07:02;20.60;;;6.85;;
29934;SDS011;19905;53.370;-6.314;2022-12-07T01:09:31;19.77;;;7.03;;
29934;SDS011;19905;53.370;-6.314;2022-12-07T01:12:00;16.60;;;6.57;;
29934;SDS011;19905;53.370;-6.314;2022-12-07T01:14:30;15.68;;;6.50;;
29934;SDS011;19905;53.370;-6.314;2022-12-07T01:16:58;16.00;;;6.53;;
29934;SDS011;19905;53.370;-6.314;2022-12-07T01:19:28;15.93;;;6.55;;
29934;SDS011;19905;53.370;-6.314;2022-12-07T01:21:57;13.63;;;5.55;;
29934;SDS011;19905;53.370;-6.314;2022-12-07T01:24:26;15.80;;;6.25;;
29934;SDS011;19905;53.370;-6.314;2022-12-07T01:26:56;16.52;;;5.93;;
29934;SDS011;19905;53.370;-6.314;2022-12-07T01:29:24;12.23;;;5.93;;
29934;SDS011;19905;53.370;-6.314;2022-12-07T01:31:54;13.68;;;5.63;;
29934;SDS011;19905;53.370;-6.314;2022-12-07T01:34:23;12.73;;;5.78;;
29934;SDS011;19905;53.370;-6.314;2022-12-07T01:36:53;14.02;;;6.18;;
29934;SDS011;19905;53.370;-6.314;2022-12-07T01:39:22;12.10;;;5.40;;
29934;SDS011;19905;53.370;-6.314;2022-12-07T01:41:50;11.40;;;5.03;;
29934;SDS011;19905;53.370;-6.314;2022-12-07T01:44:21;14.35;;;5.38;;
29934;SDS011;19905;53.370;-6.314;2022-12-07T01:46:51;13.45;;;5.13;;
29934;SDS011;19905;53.370;-6.314;2022-12-07T01:49:26;17.80;;;4.80;;
29934;SDS011;19905;53.370;-6.314;2022-12-07T01:52:07;14.85;;;5.25;;
29934;SDS011;19905;53.370;-6.314;2022-12-07T01:54:43;13.68;;;5.25;;
29934;SDS011;19905;53.370;-6.314;2022-12-07T01:57:13;13.57;;;4.70;;
29934;SDS011;19905;53.370;-6.314;2022-12-07T01:59:44;14.32;;;4.85;;
29934;SDS011;19905;53.370;-6.314;2022-12-07T02:02:17;17.85;;;5.65;;
29934;SDS011;19905;53.370;-6.314;2022-12-07T02:04:51;14.73;;;6.22;;
29934;SDS011;19905;53.370;-6.314;2022-12-07T02:07:24;11.90;;;5.07;;
29934;SDS011;19905;53.370;-6.314;2022-12-07T02:09:55;13.88;;;5.40;;
29934;SDS011;19905;53.370;-6.314;2022-12-07T02:12:25;14.80;;;5.82;;
29934;SDS011;19905;53.370;-6.314;2022-12-07T02:14:54;20.85;;;6.47;;
29934;SDS011;19905;53.370;-6.314;2022-12-07T02:17:24;12.20;;;5.38;;
29934;SDS011;19905;53.370;-6.314;2022-12-07T02:20:18;16.77;;;6.40;;
29934;SDS011;19905;53.370;-6.314;2022-12-07T02:29:11;20.00;;;7.30;;
29934;SDS011;19905;53.370;-6.314;2022-12-07T02:31:45;16.35;;;6.60;;
29934;SDS011;19905;53.370;-6.314;2022-12-07T02:34:26;21.05;;;7.53;;
29934;SDS011;19905;53.370;-6.314;2022-12-07T02:37:03;20.38;;;7.93;;
29934;SDS011;19905;53.370;-6.314;2022-12-07T02:39:40;18.40;;;7.57;;
29934;SDS011;19905;53.370;-6.314;2022-12-07T02:42:13;20.02;;;7.97;;
29934;SDS011;19905;53.370;-6.314;2022-12-07T02:44:48;15.48;;;7.53;;
29934;SDS011;19905;53.370;-6.314;2022-12-07T02:47:21;19.77;;;7.18;;
29934;SDS011;19905;53.370;-6.314;2022-12-07T02:49:53;16.20;;;7.32;;
29934;SDS011;19905;53.370;-6.314;2022-12-07T02:52:22;16.80;;;7.13;;
29934;SDS011;19905;53.370;-6.314;2022-12-07T02:54:51;16.98;;;7.32;;
29934;SDS011;19905;53.370;-6.314;2022-12-07T02:57:27;16.58;;;7.28;;
29934;SDS011;19905;53.370;-6.314;2022-12-07T03:00:12;18.08;;;7.20;;
29934;SDS011;19905;53.370;-6.314;2022-12-07T03:02:48;18.00;;;7.20;;
29934;SDS011;19905;53.370;-6.314;2022-12-07T03:08:20;14.43;;;6.38;;
29934;SDS011;19905;53.370;-6.314;2022-12-07T03:10:56;13.63;;;5.95;;
29934;SDS011;19905;53.370;-6.314;2022-12-07T03:13:29;15.95;;;6.70;;
29934;SDS011;19905;53.370;-6.314;2022-12-07T03:16:07;15.40;;;7.00;;
29934;SDS011;19905;53.370;-6.314;2022-12-07T03:18:41;13.80;;;6.97;;
29934;SDS011;19905;53.370;-6.314;2022-12-07T03:21:13;16.17;;;6.35;;
29934;SDS011;19905;53.370;-6.314;2022-12-07T03:23:45;16.73;;;7.75;;
29934;SDS011;19905;53.370;-6.314;2022-12-07T03:26:19;15.23;;;7.40;;
29934;SDS011;19905;53.370;-6.314;2022-12-07T03:28:53;17.13;;;6.90;;
29934;SDS011;19905;53.370;-6.314;2022-12-07T03:31:28;17.27;;;7.07;;
29934;SDS011;19905;53.370;-6.314;2022-12-07T03:34:02;18.55;;;6.18;;
29934;SDS011;19905;53.370;-6.314;2022-12-07T03:36:37;15.32;;;6.70;;
29934;SDS011;19905;53.370;-6.314;2022-12-07T03:39:14;17.08;;;6.85;;
29934;SDS011;19905;53.370;-6.314;2022-12-07T03:41:50;16.90;;;5.78;;
29934;SDS011;19905;53.370;-6.314;2022-12-07T03:44:20;16.58;;;5.85;;
29934;SDS011;19905;53.370;-6.314;2022-12-07T03:46:55;15.75;;;6.55;;
29934;SDS011;19905;53.370;-6.314;2022-12-07T03:49:31;18.38;;;6.40;;
29934;SDS011;19905;53.370;-6.314;2022-12-07T03:52:07;18.33;;;7.30;;
29934;SDS011;19905;53.370;-6.314;2022-12-07T03:54:41;14.30;;;7.45;;
29934;SDS011;19905;53.370;-6.314;2022-12-07T03:57:18;17.63;;;8.10;;
29934;SDS011;19905;53.370;-6.314;2022-12-07T03:59:49;16.77;;;8.30;;
29934;SDS011;19905;53.370;-6.314;2022-12-07T04:02:21;19.23;;;8.43;;
29934;SDS011;19905;53.370;-6.314;2022-12-07T04:04:51;20.92;;;8.70;;
29934;SDS011;19905;53.370;-6.314;2022-12-07T04:07:23;18.13;;;8.00;;
29934;SDS011;19905;53.370;-6.314;2022-12-07T04:09:55;18.92;;;8.57;;
29934;SDS011;19905;53.370;-6.314;2022-12-07T04:12:24;14.93;;;7.88;;
29934;SDS011;19905;53.370;-6.314;2022-12-07T04:14:55;17.13;;;8.18;;
29934;SDS011;19905;53.370;-6.314;2022-12-07T04:17:26;19.77;;;9.27;;
29934;SDS011;19905;53.370;-6.314;2022-12-07T04:19:55;23.92;;;9.55;;
29934;SDS011;19905;53.370;-6.314;2022-12-07T04:22:24;19.45;;;8.60;;
29934;SDS011;19905;53.370;-6.314;2022-12-07T04:24:52;23.05;;;9.75;;
29934;SDS011;19905;53.370;-6.314;2022-12-07T04:27:23;21.90;;;9.43;;
29934;SDS011;19905;53.370;-6.314;2022-12-07T04:29:52;15.57;;;8.43;;
29934;SDS011;19905;53.370;-6.314;2022-12-07T04:32:22;19.52;;;9.05;;
29934;SDS011;19905;53.370;-6.314;2022-12-07T04:34:53;17.75;;;9.05;;
29934;SDS011;19905;53.370;-6.314;2022-12-07T04:37:21;19.77;;;9.30;;
29934;SDS011;19905;53.370;-6.314;2022-12-07T04:39:50;20.13;;;9.10;;
29934;SDS011;19905;53.370;-6.314;2022-12-07T04:42:19;19.52;;;9.52;;
29934;SDS011;19905;53.370;-6.314;2022-12-07T04:44:49;21.60;;;8.80;;
29934;SDS011;19905;53.370;-6.314;2022-12-07T04:47:18;24.30;;;8.80;;
29934;SDS011;19905;53.370;-6.314;2022-12-07T04:49:47;20.45;;;7.70;;
29934;SDS011;19905;53.370;-6.314;2022-12-07T04:52:17;16.63;;;7.22;;
29934;SDS011;19905;53.370;-6.314;2022-12-07T04:54:46;18.70;;;7.35;;
29934;SDS011;19905;53.370;-6.314;2022-12-07T04:57:15;21.05;;;7.07;;
29934;SDS011;19905;53.370;-6.314;2022-12-07T04:59:44;12.77;;;5.82;;
29934;SDS011;19905;53.370;-6.314;2022-12-07T05:02:13;13.25;;;5.75;;
29934;SDS011;19905;53.370;-6.314;2022-12-07T05:04:42;13.57;;;5.43;;
29934;SDS011;19905;53.370;-6.314;2022-12-07T05:07:11;15.10;;;5.60;;
29934;SDS011;19905;53.370;-6.314;2022-12-07T05:09:42;12.20;;;5.47;;
29934;SDS011;19905;53.370;-6.314;2022-12-07T05:12:10;18.00;;;5.40;;
29934;SDS011;19905;53.370;-6.314;2022-12-07T05:14:39;17.35;;;5.45;;
29934;SDS011;19905;53.370;-6.314;2022-12-07T05:17:13;20.17;;;5.97;;
29934;SDS011;19905;53.370;-6.314;2022-12-07T05:19:44;12.18;;;4.90;;
29934;SDS011;19905;53.370;-6.314;2022-12-07T05:22:13;15.15;;;4.78;;
29934;SDS011;19905;53.370;-6.314;2022-12-07T05:24:47;13.98;;;5.20;;
29934;SDS011;19905;53.370;-6.314;2022-12-07T05:27:17;11.85;;;4.60;;
29934;SDS011;19905;53.370;-6.314;2022-12-07T05:29:46;14.60;;;4.88;;
29934;SDS011;19905;53.370;-6.314;2022-12-07T05:32:14;14.05;;;4.90;;
29934;SDS011;19905;53.370;-6.314;2022-12-07T05:34:43;13.82;;;5.10;;
29934;SDS011;19905;53.370;-6.314;2022-12-07T05:37:11;17.17;;;5.25;;
29934;SDS011;19905;53.370;-6.314;2022-12-07T05:39:40;15.18;;;4.85;;
29934;SDS011;19905;53.370;-6.314;2022-12-07T05:44:44;11.18;;;4.50;;
29934;SDS011;19905;53.370;-6.314;2022-12-07T05:47:14;14.38;;;5.10;;
29934;SDS011;19905;53.370;-6.314;2022-12-07T05:49:44;13.27;;;4.80;;
29934;SDS011;19905;53.370;-6.314;2022-12-07T05:52:14;16.80;;;5.57;;
29934;SDS011;19905;53.370;-6.314;2022-12-07T05:54:43;14.65;;;4.78;;
29934;SDS011;19905;53.370;-6.314;2022-12-07T05:57:11;12.63;;;4.57;;
29934;SDS011;19905;53.370;-6.314;2022-12-07T05:59:42;11.35;;;4.97;;
29934;SDS011;19905;53.370;-6.314;2022-12-07T06:02:11;13.95;;;5.18;;
29934;SDS011;19905;53.370;-6.314;2022-12-07T06:04:43;14.73;;;5.20;;
29934;SDS011;19905;53.370;-6.314;2022-12-07T06:07:14;14.45;;;5.03;;
29934;SDS011;19905;53.370;-6.314;2022-12-07T06:09:44;13.93;;;5.40;;
29934;SDS011;19905;53.370;-6.314;2022-12-07T06:12:15;29.92;;;12.32;;
29934;SDS011;19905;53.370;-6.314;2022-12-07T06:15:00;43.80;;;17.75;;
29934;SDS011;19905;53.370;-6.314;2022-12-07T06:17:30;22.70;;;8.98;;
29934;SDS011;19905;53.370;-6.314;2022-12-07T06:20:05;13.65;;;6.68;;
29934;SDS011;19905;53.370;-6.314;2022-12-07T06:22:34;16.13;;;6.63;;
29934;SDS011;19905;53.370;-6.314;2022-12-07T06:25:03;14.60;;;6.18;;
29934;SDS011;19905;53.370;-6.314;2022-12-07T06:27:35;15.85;;;6.53;;
29934;SDS011;19905;53.370;-6.314;2022-12-07T06:30:04;15.70;;;6.93;;
29934;SDS011;19905;53.370;-6.314;2022-12-07T06:32:36;17.23;;;6.68;;
29934;SDS011;19905;53.370;-6.314;2022-12-07T06:35:05;21.70;;;7.40;;
29934;SDS011;19905;53.370;-6.314;2022-12-07T06:37:34;14.93;;;6.93;;
29934;SDS011;19905;53.370;-6.314;2022-12-07T06:40:04;16.85;;;7.45;;
29934;SDS011;19905;53.370;-6.314;2022-12-07T06:42:38;16.23;;;6.55;;
29934;SDS011;19905;53.370;-6.314;2022-12-07T06:45:07;14.45;;;6.97;;
29934;SDS011;19905;53.370;-6.314;2022-12-07T06:47:36;21.25;;;7.85;;
29934;SDS011;19905;53.370;-6.314;2022-12-07T06:50:08;18.50;;;7.60;;
29934;SDS011;19905;53.370;-6.314;2022-12-07T06:52:37;14.18;;;7.43;;
29934;SDS011;19905;53.370;-6.314;2022-12-07T06:55:06;18.73;;;7.50;;
29934;SDS011;19905;53.370;-6.314;2022-12-07T06:57:36;17.75;;;7.30;;
29934;SDS011;19905;53.370;-6.314;2022-12-07T07:00:07;20.15;;;8.65;;
29934;SDS011;19905;53.370;-6.314;2022-12-07T07:02:36;23.90;;;9.52;;
29934;SDS011;19905;53.370;-6.314;2022-12-07T07:05:05;20.77;;;9.07;;
29934;SDS011;19905;53.370;-6.314;2022-12-07T07:07:35;18.58;;;7.63;;
29934;SDS011;19905;53.370;-6.314;2022-12-07T07:10:25;17.55;;;7.40;;
29934;SDS011;19905;53.370;-6.314;2022-12-07T07:12:55;16.65;;;7.03;;
29934;SDS011;19905;53.370;-6.314;2022-12-07T07:15:25;16.45;;;7.45;;
29934;SDS011;19905;53.370;-6.314;2022-12-07T07:17:55;16.23;;;7.28;;
29934;SDS011;19905;53.370;-6.314;2022-12-07T07:21:22;17.63;;;7.38;;
29934;SDS011;19905;53.370;-6.314;2022-12-07T07:28:02;15.40;;;6.45;;
29934;SDS011;19905;53.370;-6.314;2022-12-07T08:06:13;13.60;;;5.10;;
29934;SDS011;19905;53.370;-6.314;2022-12-07T08:12:41;10.90;;;4.20;;
29934;SDS011;19905;53.370;-6.314;2022-12-07T08:15:25;13.32;;;4.30;;
29934;SDS011;19905;53.370;-6.314;2022-12-07T08:17:55;10.23;;;4.00;;
29934;SDS011;19905;53.370;-6.314;2022-12-07T08:20:29;12.13;;;4.20;;
29934;SDS011;19905;53.370;-6.314;2022-12-07T08:33:57;11.95;;;4.18;;
29934;SDS011;19905;53.370;-6.314;2022-12-07T11:25:47;15.73;;;4.30;;
29934;SDS011;19905;53.370;-6.314;2022-12-07T11:28:26;10.27;;;3.67;;
29934;SDS011;19905;53.370;-6.314;2022-12-07T11:31:11;8.25;;;3.40;;
29934;SDS011;19905;53.370;-6.314;2022-12-07T11:33:56;10.02;;;3.50;;
29934;SDS011;19905;53.370;-6.314;2022-12-07T11:36:33;12.20;;;3.33;;
29934;SDS011;19905;53.370;-6.314;2022-12-07T11:39:10;8.95;;;3.50;;
29934;SDS011;19905;53.370;-6.314;2022-12-07T11:41:49;12.70;;;3.65;;
29934;SDS011;19905;53.370;-6.314;2022-12-07T11:44:25;14.93;;;3.63;;
29934;SDS011;19905;53.370;-6.314;2022-12-07T11:47:01;14.43;;;3.80;;
29934;SDS011;19905;53.370;-6.314;2022-12-07T11:49:40;10.63;;;4.28;;
29934;SDS011;19905;53.370;-6.314;2022-12-07T11:52:17;14.98;;;4.25;;
29934;SDS011;19905;53.370;-6.314;2022-12-07T11:54:51;11.13;;;3.67;;
29934;SDS011;19905;53.370;-6.314;2022-12-07T11:57:24;12.40;;;4.13;;
29934;SDS011;19905;53.370;-6.314;2022-12-07T11:59:59;10.30;;;3.85;;
29934;SDS011;19905;53.370;-6.314;2022-12-07T12:02:43;10.35;;;3.97;;
29934;SDS011;19905;53.370;-6.314;2022-12-07T12:05:18;10.73;;;4.18;;
29934;SDS011;19905;53.370;-6.314;2022-12-07T12:07:52;10.20;;;4.43;;
29934;SDS011;19905;53.370;-6.314;2022-12-07T12:10:53;9.18;;;4.03;;
29934;SDS011;19905;53.370;-6.314;2022-12-07T12:17:14;13.15;;;3.20;;
29934;SDS011;19905;53.370;-6.314;2022-12-07T12:20:05;8.55;;;3.20;;
29934;SDS011;19905;53.370;-6.314;2022-12-07T12:22:45;10.18;;;2.75;;
29934;SDS011;19905;53.370;-6.314;2022-12-07T12:25:21;6.82;;;2.17;;
29934;SDS011;19905;53.370;-6.314;2022-12-07T12:27:53;5.65;;;1.95;;
29934;SDS011;19905;53.370;-6.314;2022-12-07T12:30:31;7.00;;;1.73;;
29934;SDS011;19905;53.370;-6.314;2022-12-07T12:33:04;5.20;;;2.05;;
29934;SDS011;19905;53.370;-6.314;2022-12-07T12:35:41;9.95;;;2.15;;
29934;SDS011;19905;53.370;-6.314;2022-12-07T12:38:29;9.23;;;1.83;;
29934;SDS011;19905;53.370;-6.314;2022-12-07T12:41:01;7.50;;;1.63;;
29934;SDS011;19905;53.370;-6.314;2022-12-07T12:43:47;7.95;;;2.13;;
29934;SDS011;19905;53.370;-6.314;2022-12-07T12:55:19;5.03;;;1.88;;
29934;SDS011;19905;53.370;-6.314;2022-12-07T13:10:38;12.20;;;2.05;;
29934;SDS011;19905;53.370;-6.314;2022-12-07T13:22:38;10.32;;;3.45;;
29934;SDS011;19905;53.370;-6.314;2022-12-07T13:25:18;9.77;;;4.07;;
29934;SDS011;19905;53.370;-6.314;2022-12-07T13:28:40;10.07;;;2.55;;
29934;SDS011;19905;53.370;-6.314;2022-12-07T13:31:45;11.48;;;2.40;;
29934;SDS011;19905;53.370;-6.314;2022-12-07T13:34:29;7.47;;;2.50;;
29934;SDS011;19905;53.370;-6.314;2022-12-07T13:37:00;6.00;;;2.00;;
29934;SDS011;19905;53.370;-6.314;2022-12-07T13:39:44;7.60;;;2.10;;
29934;SDS011;19905;53.370;-6.314;2022-12-07T13:42:19;5.32;;;1.85;;
29934;SDS011;19905;53.370;-6.314;2022-12-07T13:44:53;9.65;;;2.33;;
29934;SDS011;19905;53.370;-6.314;2022-12-07T13:47:28;5.45;;;1.90;;
29934;SDS011;19905;53.370;-6.314;2022-12-07T13:50:20;11.77;;;2.20;;
29934;SDS011;19905;53.370;-6.314;2022-12-07T13:53:13;5.40;;;2.00;;
29934;SDS011;19905;53.370;-6.314;2022-12-07T13:55:46;7.18;;;1.95;;
29934;SDS011;19905;53.370;-6.314;2022-12-07T13:58:30;6.78;;;2.05;;
29934;SDS011;19905;53.370;-6.314;2022-12-07T14:01:04;9.00;;;2.78;;
29934;SDS011;19905;53.370;-6.314;2022-12-07T14:03:35;8.20;;;2.15;;
29934;SDS011;19905;53.370;-6.314;2022-12-07T14:06:15;5.35;;;2.03;;
29934;SDS011;19905;53.370;-6.314;2022-12-07T14:08:49;7.53;;;2.10;;
29934;SDS011;19905;53.370;-6.314;2022-12-07T14:11:37;7.00;;;2.10;;
29934;SDS011;19905;53.370;-6.314;2022-12-07T14:14:16;7.43;;;2.25;;
29934;SDS011;19905;53.370;-6.314;2022-12-07T14:16:58;6.70;;;1.80;;
29934;SDS011;19905;53.370;-6.314;2022-12-07T14:19:46;5.63;;;2.30;;
29934;SDS011;19905;53.370;-6.314;2022-12-07T14:22:24;7.57;;;1.70;;
29934;SDS011;19905;53.370;-6.314;2022-12-07T14:25:16;5.45;;;1.90;;
29934;SDS011;19905;53.370;-6.314;2022-12-07T14:27:50;5.05;;;1.65;;
29934;SDS011;19905;53.370;-6.314;2022-12-07T14:30:25;6.57;;;1.23;;
29934;SDS011;19905;53.370;-6.314;2022-12-07T14:36:15;5.40;;;1.55;;
29934;SDS011;19905;53.370;-6.314;2022-12-07T14:38:44;6.30;;;1.63;;
29934;SDS011;19905;53.370;-6.314;2022-12-07T14:41:14;5.15;;;1.88;;
29934;SDS011;19905;53.370;-6.314;2022-12-07T14:44:08;4.43;;;1.15;;
29934;SDS011;19905;53.370;-6.314;2022-12-07T14:46:58;2.60;;;1.05;;
29934;SDS011;19905;53.370;-6.314;2022-12-07T14:49:50;3.25;;;1.10;;
29934;SDS011;19905;53.370;-6.314;2022-12-07T14:52:26;5.18;;;1.50;;
29934;SDS011;19905;53.370;-6.314;2022-12-07T14:55:18;3.90;;;1.60;;
29934;SDS011;19905;53.370;-6.314;2022-12-07T14:57:58;8.80;;;1.92;;
29934;SDS011;19905;53.370;-6.314;2022-12-07T15:00:32;7.32;;;1.90;;
29934;SDS011;19905;53.370;-6.314;2022-12-07T15:03:03;6.40;;;1.70;;
29934;SDS011;19905;53.370;-6.314;2022-12-07T15:05:34;6.20;;;1.60;;
29934;SDS011;19905;53.370;-6.314;2022-12-07T15:08:03;5.65;;;2.15;;
29934;SDS011;19905;53.370;-6.314;2022-12-07T15:10:33;7.40;;;1.83;;
29934;SDS011;19905;53.370;-6.314;2022-12-07T15:13:06;6.75;;;1.67;;
29934;SDS011;19905;53.370;-6.314;2022-12-07T15:15:55;8.25;;;1.60;;
29934;SDS011;19905;53.370;-6.314;2022-12-07T15:18:25;9.32;;;2.78;;
29934;SDS011;19905;53.370;-6.314;2022-12-07T15:20:54;11.45;;;2.72;;
29934;SDS011;19905;53.370;-6.314;2022-12-07T15:23:25;11.00;;;4.72;;
29934;SDS011;19905;53.370;-6.314;2022-12-07T15:25:54;9.65;;;3.30;;
29934;SDS011;19905;53.370;-6.314;2022-12-07T15:28:25;8.88;;;3.00;;
29934;SDS011;19905;53.370;-6.314;2022-12-07T15:30:58;5.78;;;2.40;;
29934;SDS011;19905;53.370;-6.314;2022-12-07T15:33:51;9.65;;;3.60;;
29934;SDS011;19905;53.370;-6.314;2022-12-07T15:36:21;8.20;;;3.03;;
29934;SDS011;19905;53.370;-6.314;2022-12-07T15:38:55;7.65;;;2.55;;
29934;SDS011;19905;53.370;-6.314;2022-12-07T15:41:40;10.95;;;2.88;;
29934;SDS011;19905;53.370;-6.314;2022-12-07T15:44:11;6.57;;;3.10;;
29934;SDS011;19905;53.370;-6.314;2022-12-07T15:46:58;8.73;;;3.08;;
29934;SDS011;19905;53.370;-6.314;2022-12-07T15:50:10;6.97;;;2.10;;
29934;SDS011;19905;53.370;-6.314;2022-12-07T15:53:25;6.72;;;2.70;;
29934;SDS011;19905;53.370;-6.314;2022-12-07T15:55:54;7.20;;;2.60;;
29934;SDS011;19905;53.370;-6.314;2022-12-07T15:58:23;6.45;;;2.33;;
29934;SDS011;19905;53.370;-6.314;2022-12-07T16:00:52;8.65;;;2.55;;
29934;SDS011;19905;53.370;-6.314;2022-12-07T16:03:21;10.43;;;3.00;;
29934;SDS011;19905;53.370;-6.314;2022-12-07T16:05:51;7.53;;;2.30;;
29934;SDS011;19905;53.370;-6.314;2022-12-07T16:08:21;15.50;;;4.50;;
29934;SDS011;19905;53.370;-6.314;2022-12-07T16:10:50;24.23;;;10.35;;
29934;SDS011;19905;53.370;-6.314;2022-12-07T16:15:52;12.88;;;4.03;;
29934;SDS011;19905;53.370;-6.314;2022-12-07T16:18:22;6.15;;;2.88;;
29934;SDS011;19905;53.370;-6.314;2022-12-07T16:20:52;8.52;;;2.38;;
29934;SDS011;19905;53.370;-6.314;2022-12-07T16:23:21;8.30;;;3.50;;
29934;SDS011;19905;53.370;-6.314;2022-12-07T16:25:50;8.30;;;2.83;;
29934;SDS011;19905;53.370;-6.314;2022-12-07T16:28:19;6.70;;;2.42;;
29934;SDS011;19905;53.370;-6.314;2022-12-07T16:30:49;9.52;;;2.97;;
29934;SDS011;19905;53.370;-6.314;2022-12-07T16:33:28;8.60;;;3.50;;
29934;SDS011;19905;53.370;-6.314;2022-12-07T16:36:00;11.15;;;4.63;;
29934;SDS011;19905;53.370;-6.314;2022-12-07T16:38:31;14.77;;;6.85;;
29934;SDS011;19905;53.370;-6.314;2022-12-07T16:41:01;14.50;;;8.13;;
29934;SDS011;19905;53.370;-6.314;2022-12-07T16:43:34;26.70;;;13.70;;
29934;SDS011;19905;53.370;-6.314;2022-12-07T16:46:06;17.83;;;8.90;;
29934;SDS011;19905;53.370;-6.314;2022-12-07T16:48:36;15.75;;;8.75;;
29934;SDS011;19905;53.370;-6.314;2022-12-07T16:51:11;23.05;;;13.55;;
29934;SDS011;19905;53.370;-6.314;2022-12-07T16:54:52;20.15;;;9.50;;
29934;SDS011;19905;53.370;-6.314;2022-12-07T16:57:21;29.08;;;16.63;;
29934;SDS011;19905;53.370;-6.314;2022-12-07T16:59:53;31.80;;;16.63;;
29934;SDS011;19905;53.370;-6.314;2022-12-07T17:02:25;12.82;;;7.18;;
29934;SDS011;19905;53.370;-6.314;2022-12-07T17:04:54;10.55;;;5.57;;
29934;SDS011;19905;53.370;-6.314;2022-12-07T17:07:25;12.57;;;6.00;;
29934;SDS011;19905;53.370;-6.314;2022-12-07T17:09:59;21.45;;;10.27;;
29934;SDS011;19905;53.370;-6.314;2022-12-07T17:12:30;21.88;;;11.30;;
29934;SDS011;19905;53.370;-6.314;2022-12-07T17:14:59;19.40;;;9.43;;
29934;SDS011;19905;53.370;-6.314;2022-12-07T17:17:46;25.33;;;10.57;;
29934;SDS011;19905;53.370;-6.314;2022-12-07T17:20:19;23.50;;;10.68;;
29934;SDS011;19905;53.370;-6.314;2022-12-07T17:22:51;19.50;;;9.63;;
29934;SDS011;19905;53.370;-6.314;2022-12-07T17:25:22;26.50;;;9.95;;
29934;SDS011;19905;53.370;-6.314;2022-12-07T17:27:54;18.58;;;9.63;;
29934;SDS011;19905;53.370;-6.314;2022-12-07T17:30:22;23.02;;;10.60;;
29934;SDS011;19905;53.370;-6.314;2022-12-07T17:32:52;21.05;;;9.40;;
29934;SDS011;19905;53.370;-6.314;2022-12-07T17:35:27;14.82;;;7.43;;
29934;SDS011;19905;53.370;-6.314;2022-12-07T17:37:58;13.38;;;6.00;;
29934;SDS011;19905;53.370;-6.314;2022-12-07T17:40:28;12.48;;;5.20;;
29934;SDS011;19905;53.370;-6.314;2022-12-07T17:42:56;21.77;;;8.23;;
29934;SDS011;19905;53.370;-6.314;2022-12-07T17:45:27;22.33;;;11.15;;
29934;SDS011;19905;53.370;-6.314;2022-12-07T17:47:56;29.15;;;14.73;;
29934;SDS011;19905;53.370;-6.314;2022-12-07T17:50:25;29.23;;;14.23;;
29934;SDS011;19905;53.370;-6.314;2022-12-07T18:07:14;35.90;;;20.13;;
29934;SDS011;19905;53.370;-6.314;2022-12-07T18:10:03;32.42;;;17.13;;
29934;SDS011;19905;53.370;-6.314;2022-12-07T18:17:09;29.55;;;14.82;;
29934;SDS011;19905;53.370;-6.314;2022-12-07T18:20:29;36.67;;;16.92;;
29934;SDS011;19905;53.370;-6.314;2022-12-07T18:35:44;37.75;;;16.20;;
29934;SDS011;19905;53.370;-6.314;2022-12-07T18:38:19;36.75;;;15.82;;
29934;SDS011;19905;53.370;-6.314;2022-12-07T18:40:53;29.77;;;15.48;;
29934;SDS011;19905;53.370;-6.314;2022-12-07T18:43:22;33.45;;;16.38;;
29934;SDS011;19905;53.370;-6.314;2022-12-07T18:45:54;30.20;;;15.65;;
29934;SDS011;19905;53.370;-6.314;2022-12-07T18:48:23;37.25;;;17.15;;
29934;SDS011;19905;53.370;-6.314;2022-12-07T18:50:59;31.95;;;16.33;;
29934;SDS011;19905;53.370;-6.314;2022-12-07T18:53:29;36.50;;;18.40;;
29934;SDS011;19905;53.370;-6.314;2022-12-07T18:56:05;35.53;;;16.55;;
29934;SDS011;19905;53.370;-6.314;2022-12-07T18:58:36;31.92;;;16.27;;
29934;SDS011;19905;53.370;-6.314;2022-12-07T19:01:27;32.58;;;15.48;;
29934;SDS011;19905;53.370;-6.314;2022-12-07T19:04:03;38.30;;;17.48;;
29934;SDS011;19905;53.370;-6.314;2022-12-07T19:06:41;36.22;;;15.32;;
29934;SDS011;19905;53.370;-6.314;2022-12-07T19:09:12;32.40;;;15.05;;
29934;SDS011;19905;53.370;-6.314;2022-12-07T19:11:47;34.08;;;15.52;;
29934;SDS011;19905;53.370;-6.314;2022-12-07T19:14:20;27.48;;;13.52;;
29934;SDS011;19905;53.370;-6.314;2022-12-07T19:16:52;32.63;;;13.60;;
29934;SDS011;19905;53.370;-6.314;2022-12-07T19:21:58;29.30;;;13.32;;
29934;SDS011;19905;53.370;-6.314;2022-12-07T19:24:28;24.10;;;13.25;;
29934;SDS011;19905;53.370;-6.314;2022-12-07T19:26:58;21.30;;;12.40;;
29934;SDS011;19905;53.370;-6.314;2022-12-07T19:29:29;26.58;;;12.50;;
29934;SDS011;19905;53.370;-6.314;2022-12-07T19:32:02;29.67;;;13.82;;
29934;SDS011;19905;53.370;-6.314;2022-12-07T19:37:09;27.63;;;14.45;;
29934;SDS011;19905;53.370;-6.314;2022-12-07T19:39:42;24.60;;;12.43;;
29934;SDS011;19905;53.370;-6.314;2022-12-07T19:42:17;28.25;;;13.57;;
29934;SDS011;19905;53.370;-6.314;2022-12-07T19:44:48;33.95;;;14.07;;
29934;SDS011;19905;53.370;-6.314;2022-12-07T19:47:47;43.92;;;20.70;;
29934;SDS011;19905;53.370;-6.314;2022-12-07T19:50:39;38.20;;;16.73;;
29934;SDS011;19905;53.370;-6.314;2022-12-07T19:53:26;42.58;;;16.65;;
29934;SDS011;19905;53.370;-6.314;2022-12-07T19:56:06;32.78;;;16.10;;
29934;SDS011;19905;53.370;-6.314;2022-12-07T19:58:36;34.80;;;17.17;;
29934;SDS011;19905;53.370;-6.314;2022-12-07T20:01:27;34.03;;;15.98;;
29934;SDS011;19905;53.370;-6.314;2022-12-07T20:04:06;41.42;;;17.27;;
29934;SDS011;19905;53.370;-6.314;2022-12-07T20:06:58;32.17;;;15.20;;
29934;SDS011;19905;53.370;-6.314;2022-12-07T20:13:13;47.45;;;24.05;;
29934;SDS011;19905;53.370;-6.314;2022-12-07T20:16:36;43.13;;;19.67;;
29934;SDS011;19905;53.370;-6.314;2022-12-07T20:19:13;28.73;;;15.38;;
29934;SDS011;19905;53.370;-6.314;2022-12-07T20:22:24;31.00;;;13.95;;